sensor_id;sensor_type;location;lat;lon;timestamp;P1;durP1;ratioP1;P2;durP2;ratioP2
43086;SDS011;28708;52.224;6.924;2023-07-20T00:01:27;4.20;;;2.13;;
43086;SDS011;28708;52.224;6.924;2023-07-20T00:03:53;4.80;;;2.80;;
43086;SDS011;28708;52.224;6.924;2023-07-20T00:06:22;8.87;;;2.63;;
43086;SDS011;28708;52.224;6.924;2023-07-20T00:08:50;4.87;;;2.80;;
43086;SDS011;28708;52.224;6.924;2023-07-20T00:11:16;10.23;;;3.27;;
43086;SDS011;28708;52.224;6.924;2023-07-20T00:13:42;6.40;;;3.13;;
43086;SDS011;28708;52.224;6.924;2023-07-20T00:16:08;6.13;;;3.27;;
43086;SDS011;28708;52.224;6.924;2023-07-20T00:18:34;4.07;;;2.40;;
43086;SDS011;28708;52.224;6.924;2023-07-20T00:20:59;5.00;;;2.40;;
43086;SDS011;28708;52.224;6.924;2023-07-20T00:23:25;6.80;;;2.90;;
43086;SDS011;28708;52.224;6.924;2023-07-20T00:25:51;7.07;;;2.90;;
43086;SDS011;28708;52.224;6.924;2023-07-20T00:28:17;12.73;;;4.33;;
43086;SDS011;28708;52.224;6.924;2023-07-20T00:30:43;14.17;;;4.33;;
43086;SDS011;28708;52.224;6.924;2023-07-20T00:33:12;10.80;;;3.93;;
43086;SDS011;28708;52.224;6.924;2023-07-20T00:35:38;7.33;;;3.90;;
43086;SDS011;28708;52.224;6.924;2023-07-20T00:38:04;9.80;;;5.13;;
43086;SDS011;28708;52.224;6.924;2023-07-20T00:40:39;11.67;;;5.40;;
43086;SDS011;28708;52.224;6.924;2023-07-20T00:43:06;9.70;;;4.63;;
43086;SDS011;28708;52.224;6.924;2023-07-20T00:45:33;7.83;;;4.50;;
43086;SDS011;28708;52.224;6.924;2023-07-20T00:47:59;10.70;;;4.60;;
43086;SDS011;28708;52.224;6.924;2023-07-20T00:50:26;10.33;;;5.30;;
43086;SDS011;28708;52.224;6.924;2023-07-20T00:52:54;6.80;;;4.60;;
43086;SDS011;28708;52.224;6.924;2023-07-20T00:55:21;7.03;;;4.60;;
43086;SDS011;28708;52.224;6.924;2023-07-20T00:57:48;7.37;;;5.07;;
43086;SDS011;28708;52.224;6.924;2023-07-20T01:00:15;9.80;;;5.73;;
43086;SDS011;28708;52.224;6.924;2023-07-20T01:02:42;8.53;;;5.50;;
43086;SDS011;28708;52.224;6.924;2023-07-20T01:05:08;9.53;;;6.10;;
43086;SDS011;28708;52.224;6.924;2023-07-20T01:07:35;8.27;;;5.73;;
43086;SDS011;28708;52.224;6.924;2023-07-20T01:10:06;10.98;;;6.32;;
43086;SDS011;28708;52.224;6.924;2023-07-20T01:12:43;11.27;;;6.33;;
43086;SDS011;28708;52.224;6.924;2023-07-20T01:15:12;9.97;;;6.33;;
43086;SDS011;28708;52.224;6.924;2023-07-20T01:17:38;8.43;;;6.47;;
43086;SDS011;28708;52.224;6.924;2023-07-20T01:20:06;8.67;;;6.63;;
43086;SDS011;28708;52.224;6.924;2023-07-20T01:30:56;8.47;;;6.87;;
43086;SDS011;28708;52.224;6.924;2023-07-20T01:33:34;12.07;;;7.33;;
43086;SDS011;28708;52.224;6.924;2023-07-20T01:36:00;10.23;;;7.17;;
43086;SDS011;28708;52.224;6.924;2023-07-20T01:38:27;11.27;;;8.07;;
43086;SDS011;28708;52.224;6.924;2023-07-20T01:40:54;8.87;;;7.00;;
43086;SDS011;28708;52.224;6.924;2023-07-20T01:43:20;8.73;;;7.00;;
43086;SDS011;28708;52.224;6.924;2023-07-20T01:45:47;9.40;;;7.10;;
43086;SDS011;28708;52.224;6.924;2023-07-20T01:48:13;9.13;;;6.27;;
43086;SDS011;28708;52.224;6.924;2023-07-20T01:50:38;8.70;;;7.07;;
43086;SDS011;28708;52.224;6.924;2023-07-20T01:53:04;9.67;;;7.50;;
43086;SDS011;28708;52.224;6.924;2023-07-20T01:55:30;9.37;;;6.27;;
43086;SDS011;28708;52.224;6.924;2023-07-20T01:57:55;12.27;;;6.60;;
43086;SDS011;28708;52.224;6.924;2023-07-20T02:00:21;11.00;;;5.67;;
43086;SDS011;28708;52.224;6.924;2023-07-20T02:02:50;11.47;;;6.37;;
43086;SDS011;28708;52.224;6.924;2023-07-20T02:05:16;7.23;;;5.67;;
43086;SDS011;28708;52.224;6.924;2023-07-20T02:07:42;10.60;;;6.17;;
43086;SDS011;28708;52.224;6.924;2023-07-20T02:10:08;6.93;;;5.90;;
43086;SDS011;28708;52.224;6.924;2023-07-20T02:12:34;8.87;;;6.00;;
43086;SDS011;28708;52.224;6.924;2023-07-20T02:15:00;7.67;;;5.67;;
43086;SDS011;28708;52.224;6.924;2023-07-20T02:17:29;7.95;;;6.75;;
43086;SDS011;28708;52.224;6.924;2023-07-20T02:19:56;11.13;;;6.63;;
43086;SDS011;28708;52.224;6.924;2023-07-20T02:22:22;8.70;;;5.77;;
43086;SDS011;28708;52.224;6.924;2023-07-20T02:24:48;10.53;;;6.70;;
43086;SDS011;28708;52.224;6.924;2023-07-20T02:27:15;10.17;;;6.20;;
43086;SDS011;28708;52.224;6.924;2023-07-20T02:29:41;10.73;;;6.17;;
43086;SDS011;28708;52.224;6.924;2023-07-20T02:32:09;9.40;;;6.90;;
43086;SDS011;28708;52.224;6.924;2023-07-20T02:34:36;8.33;;;6.80;;
43086;SDS011;28708;52.224;6.924;2023-07-20T02:37:02;7.10;;;6.33;;
43086;SDS011;28708;52.224;6.924;2023-07-20T02:39:27;8.77;;;6.90;;
43086;SDS011;28708;52.224;6.924;2023-07-20T02:41:53;11.37;;;6.07;;
43086;SDS011;28708;52.224;6.924;2023-07-20T02:44:19;7.70;;;6.20;;
43086;SDS011;28708;52.224;6.924;2023-07-20T02:46:45;9.80;;;6.70;;
43086;SDS011;28708;52.224;6.924;2023-07-20T02:49:11;9.00;;;6.40;;
43086;SDS011;28708;52.224;6.924;2023-07-20T02:51:37;9.40;;;6.70;;
43086;SDS011;28708;52.224;6.924;2023-07-20T02:54:03;12.40;;;7.00;;
43086;SDS011;28708;52.224;6.924;2023-07-20T02:56:29;7.70;;;6.20;;
43086;SDS011;28708;52.224;6.924;2023-07-20T02:58:54;8.53;;;6.50;;
43086;SDS011;28708;52.224;6.924;2023-07-20T03:01:20;9.80;;;7.53;;
43086;SDS011;28708;52.224;6.924;2023-07-20T03:03:46;9.20;;;7.40;;
43086;SDS011;28708;52.224;6.924;2023-07-20T03:06:15;10.33;;;8.03;;
43086;SDS011;28708;52.224;6.924;2023-07-20T03:08:42;14.15;;;7.35;;
43086;SDS011;28708;52.224;6.924;2023-07-20T03:11:15;13.60;;;7.47;;
43086;SDS011;28708;52.224;6.924;2023-07-20T03:13:41;9.90;;;7.53;;
43086;SDS011;28708;52.224;6.924;2023-07-20T03:16:08;10.90;;;6.80;;
43086;SDS011;28708;52.224;6.924;2023-07-20T03:18:40;8.88;;;7.35;;
43086;SDS011;28708;52.224;6.924;2023-07-20T03:21:07;9.60;;;7.30;;
43086;SDS011;28708;52.224;6.924;2023-07-20T03:23:34;10.47;;;7.20;;
43086;SDS011;28708;52.224;6.924;2023-07-20T03:26:02;8.63;;;7.30;;
43086;SDS011;28708;52.224;6.924;2023-07-20T03:28:30;9.10;;;7.27;;
43086;SDS011;28708;52.224;6.924;2023-07-20T03:30:56;10.60;;;8.10;;
43086;SDS011;28708;52.224;6.924;2023-07-20T03:33:25;9.60;;;6.93;;
43086;SDS011;28708;52.224;6.924;2023-07-20T03:35:52;8.23;;;7.13;;
43086;SDS011;28708;52.224;6.924;2023-07-20T03:38:19;10.77;;;7.60;;
43086;SDS011;28708;52.224;6.924;2023-07-20T03:40:51;10.50;;;7.57;;
43086;SDS011;28708;52.224;6.924;2023-07-20T03:43:18;8.87;;;7.30;;
43086;SDS011;28708;52.224;6.924;2023-07-20T03:45:44;9.87;;;8.03;;
43086;SDS011;28708;52.224;6.924;2023-07-20T03:48:14;10.67;;;8.60;;
43086;SDS011;28708;52.224;6.924;2023-07-20T03:50:41;11.40;;;8.20;;
43086;SDS011;28708;52.224;6.924;2023-07-20T03:53:09;12.40;;;8.87;;
43086;SDS011;28708;52.224;6.924;2023-07-20T03:55:34;9.73;;;7.90;;
43086;SDS011;28708;52.224;6.924;2023-07-20T03:58:00;12.93;;;8.47;;
43086;SDS011;28708;52.224;6.924;2023-07-20T04:00:27;10.67;;;8.03;;
43086;SDS011;28708;52.224;6.924;2023-07-20T04:02:52;10.87;;;7.90;;
43086;SDS011;28708;52.224;6.924;2023-07-20T04:05:18;11.83;;;8.63;;
43086;SDS011;28708;52.224;6.924;2023-07-20T04:07:47;10.97;;;8.30;;
43086;SDS011;28708;52.224;6.924;2023-07-20T04:10:13;12.40;;;8.50;;
43086;SDS011;28708;52.224;6.924;2023-07-20T04:12:38;12.53;;;8.63;;
43086;SDS011;28708;52.224;6.924;2023-07-20T04:15:04;9.30;;;7.90;;
43086;SDS011;28708;52.224;6.924;2023-07-20T04:17:31;9.10;;;8.03;;
43086;SDS011;28708;52.224;6.924;2023-07-20T04:19:58;9.77;;;8.10;;
43086;SDS011;28708;52.224;6.924;2023-07-20T04:22:23;12.50;;;8.70;;
43086;SDS011;28708;52.224;6.924;2023-07-20T04:24:49;13.67;;;8.57;;
43086;SDS011;28708;52.224;6.924;2023-07-20T04:27:15;11.97;;;8.07;;
43086;SDS011;28708;52.224;6.924;2023-07-20T04:29:40;11.60;;;8.40;;
43086;SDS011;28708;52.224;6.924;2023-07-20T04:32:06;12.00;;;8.43;;
43086;SDS011;28708;52.224;6.924;2023-07-20T04:34:32;9.97;;;7.60;;
43086;SDS011;28708;52.224;6.924;2023-07-20T04:37:06;10.67;;;8.50;;
43086;SDS011;28708;52.224;6.924;2023-07-20T04:39:31;10.77;;;7.47;;
43086;SDS011;28708;52.224;6.924;2023-07-20T04:42:00;8.90;;;7.90;;
43086;SDS011;28708;52.224;6.924;2023-07-20T04:44:26;14.80;;;9.07;;
43086;SDS011;28708;52.224;6.924;2023-07-20T04:46:51;11.27;;;7.33;;
43086;SDS011;28708;52.224;6.924;2023-07-20T04:49:17;8.77;;;7.27;;
43086;SDS011;28708;52.224;6.924;2023-07-20T04:51:45;8.83;;;7.40;;
43086;SDS011;28708;52.224;6.924;2023-07-20T04:54:11;10.77;;;8.13;;
43086;SDS011;28708;52.224;6.924;2023-07-20T04:56:37;8.83;;;6.77;;
43086;SDS011;28708;52.224;6.924;2023-07-20T04:59:05;7.17;;;5.97;;
43086;SDS011;28708;52.224;6.924;2023-07-20T05:01:31;7.73;;;6.47;;
43086;SDS011;28708;52.224;6.924;2023-07-20T05:03:57;8.37;;;6.80;;
43086;SDS011;28708;52.224;6.924;2023-07-20T05:06:23;7.20;;;6.10;;
43086;SDS011;28708;52.224;6.924;2023-07-20T05:08:48;7.10;;;5.90;;
43086;SDS011;28708;52.224;6.924;2023-07-20T05:11:14;8.27;;;6.13;;
43086;SDS011;28708;52.224;6.924;2023-07-20T05:13:40;7.93;;;6.47;;
43086;SDS011;28708;52.224;6.924;2023-07-20T05:16:06;8.37;;;6.40;;
43086;SDS011;28708;52.224;6.924;2023-07-20T05:18:33;8.63;;;6.73;;
43086;SDS011;28708;52.224;6.924;2023-07-20T05:20:59;8.10;;;6.30;;
43086;SDS011;28708;52.224;6.924;2023-07-20T05:23:25;8.77;;;6.83;;
43086;SDS011;28708;52.224;6.924;2023-07-20T05:25:57;7.60;;;6.53;;
43086;SDS011;28708;52.224;6.924;2023-07-20T05:28:24;7.60;;;6.80;;
43086;SDS011;28708;52.224;6.924;2023-07-20T05:30:51;10.43;;;6.97;;
43086;SDS011;28708;52.224;6.924;2023-07-20T05:33:20;7.67;;;6.57;;
43086;SDS011;28708;52.224;6.924;2023-07-20T05:35:46;10.03;;;6.87;;
43086;SDS011;28708;52.224;6.924;2023-07-20T05:38:12;8.50;;;6.47;;
43086;SDS011;28708;52.224;6.924;2023-07-20T05:40:38;7.93;;;6.23;;
43086;SDS011;28708;52.224;6.924;2023-07-20T05:43:05;7.83;;;6.47;;
43086;SDS011;28708;52.224;6.924;2023-07-20T05:45:31;8.17;;;6.50;;
43086;SDS011;28708;52.224;6.924;2023-07-20T05:47:56;10.07;;;6.80;;
43086;SDS011;28708;52.224;6.924;2023-07-20T05:50:22;7.53;;;6.30;;
43086;SDS011;28708;52.224;6.924;2023-07-20T05:52:48;7.97;;;6.50;;
43086;SDS011;28708;52.224;6.924;2023-07-20T05:55:14;6.77;;;5.90;;
43086;SDS011;28708;52.224;6.924;2023-07-20T05:57:39;7.17;;;6.30;;
43086;SDS011;28708;52.224;6.924;2023-07-20T06:00:07;9.60;;;6.20;;
43086;SDS011;28708;52.224;6.924;2023-07-20T06:02:41;8.27;;;6.37;;
43086;SDS011;28708;52.224;6.924;2023-07-20T06:05:07;7.37;;;6.60;;
43086;SDS011;28708;52.224;6.924;2023-07-20T06:07:37;10.38;;;7.25;;
43086;SDS011;28708;52.224;6.924;2023-07-20T06:10:03;9.43;;;7.43;;
43086;SDS011;28708;52.224;6.924;2023-07-20T06:12:29;9.50;;;7.17;;
43086;SDS011;28708;52.224;6.924;2023-07-20T06:14:55;8.93;;;6.07;;
43086;SDS011;28708;52.224;6.924;2023-07-20T06:17:21;7.93;;;6.47;;
43086;SDS011;28708;52.224;6.924;2023-07-20T06:19:47;10.03;;;6.50;;
43086;SDS011;28708;52.224;6.924;2023-07-20T06:22:12;7.70;;;6.13;;
43086;SDS011;28708;52.224;6.924;2023-07-20T06:24:38;7.63;;;5.67;;
43086;SDS011;28708;52.224;6.924;2023-07-20T06:27:04;7.07;;;5.80;;
43086;SDS011;28708;52.224;6.924;2023-07-20T06:29:31;8.90;;;5.43;;
43086;SDS011;28708;52.224;6.924;2023-07-20T06:31:56;6.40;;;5.63;;
43086;SDS011;28708;52.224;6.924;2023-07-20T06:34:22;8.13;;;4.97;;
43086;SDS011;28708;52.224;6.924;2023-07-20T06:36:48;8.27;;;4.93;;
43086;SDS011;28708;52.224;6.924;2023-07-20T06:39:13;9.07;;;6.20;;
43086;SDS011;28708;52.224;6.924;2023-07-20T06:41:39;7.43;;;6.23;;
43086;SDS011;28708;52.224;6.924;2023-07-20T06:44:05;9.03;;;5.77;;
43086;SDS011;28708;52.224;6.924;2023-07-20T06:46:30;7.77;;;5.57;;
43086;SDS011;28708;52.224;6.924;2023-07-20T06:48:56;6.20;;;5.00;;
43086;SDS011;28708;52.224;6.924;2023-07-20T06:51:22;6.97;;;4.83;;
43086;SDS011;28708;52.224;6.924;2023-07-20T06:53:47;5.50;;;4.20;;
43086;SDS011;28708;52.224;6.924;2023-07-20T06:56:13;7.37;;;5.03;;
43086;SDS011;28708;52.224;6.924;2023-07-20T06:58:39;6.87;;;5.23;;
43086;SDS011;28708;52.224;6.924;2023-07-20T07:01:05;9.33;;;5.40;;
43086;SDS011;28708;52.224;6.924;2023-07-20T07:03:33;7.27;;;4.93;;
43086;SDS011;28708;52.224;6.924;2023-07-20T07:05:59;6.27;;;4.97;;
43086;SDS011;28708;52.224;6.924;2023-07-20T07:08:25;7.20;;;4.60;;
43086;SDS011;28708;52.224;6.924;2023-07-20T07:10:52;7.87;;;3.83;;
43086;SDS011;28708;52.224;6.924;2023-07-20T07:13:18;6.13;;;3.97;;
43086;SDS011;28708;52.224;6.924;2023-07-20T07:15:44;4.37;;;2.50;;
43086;SDS011;28708;52.224;6.924;2023-07-20T07:18:11;3.63;;;2.80;;
43086;SDS011;28708;52.224;6.924;2023-07-20T07:20:36;4.17;;;2.70;;
43086;SDS011;28708;52.224;6.924;2023-07-20T07:23:02;8.57;;;3.17;;
43086;SDS011;28708;52.224;6.924;2023-07-20T07:25:28;4.87;;;3.10;;
43086;SDS011;28708;52.224;6.924;2023-07-20T07:27:54;8.00;;;2.50;;
43086;SDS011;28708;52.224;6.924;2023-07-20T07:30:21;4.43;;;2.43;;
43086;SDS011;28708;52.224;6.924;2023-07-20T07:32:47;9.53;;;6.73;;
43086;SDS011;28708;52.224;6.924;2023-07-20T07:35:12;4.03;;;2.37;;
43086;SDS011;28708;52.224;6.924;2023-07-20T07:37:38;3.47;;;2.10;;
43086;SDS011;28708;52.224;6.924;2023-07-20T07:40:04;4.30;;;2.10;;
43086;SDS011;28708;52.224;6.924;2023-07-20T07:42:31;2.30;;;1.60;;
43086;SDS011;28708;52.224;6.924;2023-07-20T07:44:57;3.80;;;1.70;;
43086;SDS011;28708;52.224;6.924;2023-07-20T07:47:22;3.73;;;1.30;;
43086;SDS011;28708;52.224;6.924;2023-07-20T07:49:48;2.43;;;1.40;;
43086;SDS011;28708;52.224;6.924;2023-07-20T07:52:15;5.10;;;2.00;;
43086;SDS011;28708;52.224;6.924;2023-07-20T07:54:40;4.93;;;1.40;;
43086;SDS011;28708;52.224;6.924;2023-07-20T07:57:06;4.53;;;1.23;;
43086;SDS011;28708;52.224;6.924;2023-07-20T07:59:32;3.20;;;1.43;;
43086;SDS011;28708;52.224;6.924;2023-07-20T08:02:02;8.15;;;1.20;;
43086;SDS011;28708;52.224;6.924;2023-07-20T08:04:29;3.07;;;1.20;;
43086;SDS011;28708;52.224;6.924;2023-07-20T08:06:55;4.67;;;1.40;;
43086;SDS011;28708;52.224;6.924;2023-07-20T08:09:21;3.73;;;1.30;;
43086;SDS011;28708;52.224;6.924;2023-07-20T08:11:47;1.83;;;1.00;;
43086;SDS011;28708;52.224;6.924;2023-07-20T08:14:13;2.70;;;0.97;;
43086;SDS011;28708;52.224;6.924;2023-07-20T08:16:39;1.63;;;0.90;;
43086;SDS011;28708;52.224;6.924;2023-07-20T08:19:04;2.30;;;1.03;;
43086;SDS011;28708;52.224;6.924;2023-07-20T08:21:30;5.43;;;1.33;;
43086;SDS011;28708;52.224;6.924;2023-07-20T08:23:56;3.53;;;1.30;;
43086;SDS011;28708;52.224;6.924;2023-07-20T08:26:22;3.63;;;0.93;;
43086;SDS011;28708;52.224;6.924;2023-07-20T08:28:49;2.13;;;0.73;;
43086;SDS011;28708;52.224;6.924;2023-07-20T08:31:14;5.28;;;0.82;;
43086;SDS011;28708;52.224;6.924;2023-07-20T08:33:40;2.20;;;0.90;;
43086;SDS011;28708;52.224;6.924;2023-07-20T08:36:06;2.67;;;0.82;;
43086;SDS011;28708;52.224;6.924;2023-07-20T08:38:31;1.55;;;0.80;;
43086;SDS011;28708;52.224;6.924;2023-07-20T08:40:57;3.17;;;0.75;;
43086;SDS011;28708;52.224;6.924;2023-07-20T08:43:25;2.97;;;0.50;;
43086;SDS011;28708;52.224;6.924;2023-07-20T08:45:51;1.27;;;0.45;;
43086;SDS011;28708;52.224;6.924;2023-07-20T08:48:20;1.88;;;0.65;;
43086;SDS011;28708;52.224;6.924;2023-07-20T08:50:46;2.67;;;0.57;;
43086;SDS011;28708;52.224;6.924;2023-07-20T08:53:15;2.05;;;0.40;;
43086;SDS011;28708;52.224;6.924;2023-07-20T08:55:42;2.17;;;0.55;;
43086;SDS011;28708;52.224;6.924;2023-07-20T08:58:10;2.08;;;0.50;;
43086;SDS011;28708;52.224;6.924;2023-07-20T09:00:37;1.02;;;0.30;;
43086;SDS011;28708;52.224;6.924;2023-07-20T09:03:03;1.05;;;0.55;;
43086;SDS011;28708;52.224;6.924;2023-07-20T09:05:30;1.45;;;0.40;;
43086;SDS011;28708;52.224;6.924;2023-07-20T09:07:56;1.58;;;0.38;;
43086;SDS011;28708;52.224;6.924;2023-07-20T09:10:22;1.88;;;0.35;;
43086;SDS011;28708;52.224;6.924;2023-07-20T09:12:50;2.57;;;0.70;;
43086;SDS011;28708;52.224;6.924;2023-07-20T09:15:16;1.90;;;0.60;;
43086;SDS011;28708;52.224;6.924;2023-07-20T09:17:46;1.85;;;0.30;;
43086;SDS011;28708;52.224;6.924;2023-07-20T09:20:14;2.20;;;0.40;;
43086;SDS011;28708;52.224;6.924;2023-07-20T09:22:40;2.33;;;0.50;;
43086;SDS011;28708;52.224;6.924;2023-07-20T09:25:14;1.92;;;0.57;;
43086;SDS011;28708;52.224;6.924;2023-07-20T09:27:46;1.20;;;0.50;;
43086;SDS011;28708;52.224;6.924;2023-07-20T09:30:16;0.55;;;0.25;;
43086;SDS011;28708;52.224;6.924;2023-07-20T09:32:43;2.05;;;0.47;;
43086;SDS011;28708;52.224;6.924;2023-07-20T09:35:17;1.83;;;0.30;;
43086;SDS011;28708;52.224;6.924;2023-07-20T09:37:52;1.00;;;0.40;;
43086;SDS011;28708;52.224;6.924;2023-07-20T09:40:25;1.83;;;0.30;;
43086;SDS011;28708;52.224;6.924;2023-07-20T09:42:52;1.60;;;0.50;;
43086;SDS011;28708;52.224;6.924;2023-07-20T09:45:28;1.55;;;0.50;;
43086;SDS011;28708;52.224;6.924;2023-07-20T09:48:14;2.08;;;0.40;;
43086;SDS011;28708;52.224;6.924;2023-07-20T09:50:40;2.35;;;0.60;;
43086;SDS011;28708;52.224;6.924;2023-07-20T09:53:07;1.25;;;0.43;;
43086;SDS011;28708;52.224;6.924;2023-07-20T09:55:36;2.08;;;0.63;;
43086;SDS011;28708;52.224;6.924;2023-07-20T09:58:03;4.80;;;0.65;;
43086;SDS011;28708;52.224;6.924;2023-07-20T10:00:32;1.45;;;0.52;;
43086;SDS011;28708;52.224;6.924;2023-07-20T10:02:59;3.75;;;0.70;;
43086;SDS011;28708;52.224;6.924;2023-07-20T10:05:31;1.70;;;0.57;;
43086;SDS011;28708;52.224;6.924;2023-07-20T10:08:02;1.65;;;0.47;;
43086;SDS011;28708;52.224;6.924;2023-07-20T10:10:31;1.98;;;0.70;;
43086;SDS011;28708;52.224;6.924;2023-07-20T10:12:59;2.22;;;0.60;;
43086;SDS011;28708;52.224;6.924;2023-07-20T10:15:34;1.77;;;0.50;;
43086;SDS011;28708;52.224;6.924;2023-07-20T10:20:43;3.88;;;0.95;;
43086;SDS011;28708;52.224;6.924;2023-07-20T10:23:11;2.22;;;0.60;;
43086;SDS011;28708;52.224;6.924;2023-07-20T10:25:37;2.53;;;0.60;;
43086;SDS011;28708;52.224;6.924;2023-07-20T10:28:06;1.75;;;0.50;;
43086;SDS011;28708;52.224;6.924;2023-07-20T10:30:35;1.77;;;0.55;;
43086;SDS011;28708;52.224;6.924;2023-07-20T10:33:05;1.23;;;0.50;;
43086;SDS011;28708;52.224;6.924;2023-07-20T10:35:40;1.35;;;0.50;;
43086;SDS011;28708;52.224;6.924;2023-07-20T10:38:20;2.97;;;0.75;;
43086;SDS011;28708;52.224;6.924;2023-07-20T10:41:02;2.42;;;0.30;;
43086;SDS011;28708;52.224;6.924;2023-07-20T10:43:28;1.23;;;0.50;;
43086;SDS011;28708;52.224;6.924;2023-07-20T10:45:55;1.98;;;0.50;;
43086;SDS011;28708;52.224;6.924;2023-07-20T10:48:22;6.07;;;0.57;;
43086;SDS011;28708;52.224;6.924;2023-07-20T10:53:34;1.30;;;0.50;;
43086;SDS011;28708;52.224;6.924;2023-07-20T10:56:07;1.70;;;0.50;;
43086;SDS011;28708;52.224;6.924;2023-07-20T10:58:36;0.47;;;0.38;;
43086;SDS011;28708;52.224;6.924;2023-07-20T11:01:02;1.63;;;0.40;;
43086;SDS011;28708;52.224;6.924;2023-07-20T11:03:33;7.63;;;0.60;;
43086;SDS011;28708;52.224;6.924;2023-07-20T11:06:29;1.25;;;0.38;;
43086;SDS011;28708;52.224;6.924;2023-07-20T11:08:49;0.50;;;0.30;;
43086;SDS011;28708;52.224;6.924;2023-07-20T11:11:21;0.82;;;0.20;;
43086;SDS011;28708;52.224;6.924;2023-07-20T11:19:02;1.33;;;0.40;;
43086;SDS011;28708;52.224;6.924;2023-07-20T11:21:29;1.17;;;0.30;;
43086;SDS011;28708;52.224;6.924;2023-07-20T11:24:02;0.70;;;0.30;;
43086;SDS011;28708;52.224;6.924;2023-07-20T11:26:29;1.70;;;0.50;;
43086;SDS011;28708;52.224;6.924;2023-07-20T11:28:54;1.38;;;0.57;;
43086;SDS011;28708;52.224;6.924;2023-07-20T11:31:20;0.90;;;0.43;;
43086;SDS011;28708;52.224;6.924;2023-07-20T11:33:46;0.77;;;0.38;;
43086;SDS011;28708;52.224;6.924;2023-07-20T11:36:12;0.82;;;0.50;;
43086;SDS011;28708;52.224;6.924;2023-07-20T11:38:41;1.75;;;0.80;;
43086;SDS011;28708;52.224;6.924;2023-07-20T11:41:09;0.85;;;0.30;;
43086;SDS011;28708;52.224;6.924;2023-07-20T11:43:34;0.60;;;0.30;;
43086;SDS011;28708;52.224;6.924;2023-07-20T11:46:04;1.42;;;0.52;;
43086;SDS011;28708;52.224;6.924;2023-07-20T11:48:30;0.52;;;0.30;;
43086;SDS011;28708;52.224;6.924;2023-07-20T11:50:56;2.42;;;0.50;;
43086;SDS011;28708;52.224;6.924;2023-07-20T11:53:22;0.73;;;0.20;;
43086;SDS011;28708;52.224;6.924;2023-07-20T11:55:50;1.38;;;0.50;;
43086;SDS011;28708;52.224;6.924;2023-07-20T11:58:16;0.75;;;0.40;;
43086;SDS011;28708;52.224;6.924;2023-07-20T12:00:43;1.70;;;0.50;;
43086;SDS011;28708;52.224;6.924;2023-07-20T12:03:11;2.85;;;0.73;;
43086;SDS011;28708;52.224;6.924;2023-07-20T12:05:37;3.28;;;0.70;;
43086;SDS011;28708;52.224;6.924;2023-07-20T12:08:04;2.25;;;0.57;;
43086;SDS011;28708;52.224;6.924;2023-07-20T12:10:30;0.63;;;0.40;;
43086;SDS011;28708;52.224;6.924;2023-07-20T12:13:01;3.45;;;0.80;;
43086;SDS011;28708;52.224;6.924;2023-07-20T12:15:28;2.45;;;0.75;;
43086;SDS011;28708;52.224;6.924;2023-07-20T12:18:00;1.33;;;0.50;;
43086;SDS011;28708;52.224;6.924;2023-07-20T12:20:37;1.25;;;0.50;;
43086;SDS011;28708;52.224;6.924;2023-07-20T12:23:10;0.70;;;0.52;;
43086;SDS011;28708;52.224;6.924;2023-07-20T12:28:04;11.23;;;0.80;;
43086;SDS011;28708;52.224;6.924;2023-07-20T12:30:32;1.90;;;0.50;;
43086;SDS011;28708;52.224;6.924;2023-07-20T12:32:58;0.98;;;0.50;;
43086;SDS011;28708;52.224;6.924;2023-07-20T12:35:24;1.60;;;0.60;;
43086;SDS011;28708;52.224;6.924;2023-07-20T12:37:50;0.85;;;0.47;;
43086;SDS011;28708;52.224;6.924;2023-07-20T12:40:17;0.88;;;0.40;;
43086;SDS011;28708;52.224;6.924;2023-07-20T12:42:42;2.08;;;0.80;;
43086;SDS011;28708;52.224;6.924;2023-07-20T12:45:08;4.95;;;0.68;;
43086;SDS011;28708;52.224;6.924;2023-07-20T12:47:36;0.30;;;0.30;;
43086;SDS011;28708;52.224;6.924;2023-07-20T12:50:01;1.17;;;0.60;;
43086;SDS011;28708;52.224;6.924;2023-07-20T12:52:29;1.73;;;0.70;;
43086;SDS011;28708;52.224;6.924;2023-07-20T12:54:55;1.63;;;0.70;;
43086;SDS011;28708;52.224;6.924;2023-07-20T12:57:21;1.30;;;0.60;;
43086;SDS011;28708;52.224;6.924;2023-07-20T12:59:46;1.45;;;0.50;;
43086;SDS011;28708;52.224;6.924;2023-07-20T13:02:12;2.70;;;0.50;;
43086;SDS011;28708;52.224;6.924;2023-07-20T13:04:37;2.47;;;0.80;;
43086;SDS011;28708;52.224;6.924;2023-07-20T13:07:03;1.15;;;0.50;;
43086;SDS011;28708;52.224;6.924;2023-07-20T13:09:29;2.33;;;0.63;;
43086;SDS011;28708;52.224;6.924;2023-07-20T13:11:55;1.23;;;0.50;;
43086;SDS011;28708;52.224;6.924;2023-07-20T13:14:22;4.13;;;0.65;;
43086;SDS011;28708;52.224;6.924;2023-07-20T13:16:47;1.05;;;0.50;;
43086;SDS011;28708;52.224;6.924;2023-07-20T13:19:16;1.92;;;0.60;;
43086;SDS011;28708;52.224;6.924;2023-07-20T13:21:42;2.15;;;0.88;;
43086;SDS011;28708;52.224;6.924;2023-07-20T13:24:08;0.88;;;0.40;;
43086;SDS011;28708;52.224;6.924;2023-07-20T13:26:33;2.22;;;0.80;;
43086;SDS011;28708;52.224;6.924;2023-07-20T13:28:59;2.83;;;0.60;;
43086;SDS011;28708;52.224;6.924;2023-07-20T13:31:25;1.58;;;0.52;;
43086;SDS011;28708;52.224;6.924;2023-07-20T13:33:50;1.42;;;0.60;;
43086;SDS011;28708;52.224;6.924;2023-07-20T13:36:18;0.55;;;0.40;;
43086;SDS011;28708;52.224;6.924;2023-07-20T13:38:45;0.55;;;0.40;;
43086;SDS011;28708;52.224;6.924;2023-07-20T13:41:11;1.52;;;0.70;;
43086;SDS011;28708;52.224;6.924;2023-07-20T13:43:37;4.00;;;0.65;;
43086;SDS011;28708;52.224;6.924;2023-07-20T13:46:03;1.60;;;0.60;;
43086;SDS011;28708;52.224;6.924;2023-07-20T13:48:28;2.05;;;0.80;;
43086;SDS011;28708;52.224;6.924;2023-07-20T13:50:54;3.42;;;0.68;;
43086;SDS011;28708;52.224;6.924;2023-07-20T13:53:20;1.23;;;0.50;;
43086;SDS011;28708;52.224;6.924;2023-07-20T13:55:47;1.40;;;0.50;;
43086;SDS011;28708;52.224;6.924;2023-07-20T13:58:13;1.35;;;0.50;;
43086;SDS011;28708;52.224;6.924;2023-07-20T14:00:39;1.67;;;0.50;;
43086;SDS011;28708;52.224;6.924;2023-07-20T14:03:05;0.68;;;0.38;;
43086;SDS011;28708;52.224;6.924;2023-07-20T14:05:31;3.38;;;0.52;;
43086;SDS011;28708;52.224;6.924;2023-07-20T14:07:56;2.70;;;0.75;;
43086;SDS011;28708;52.224;6.924;2023-07-20T14:10:22;1.75;;;0.50;;
43086;SDS011;28708;52.224;6.924;2023-07-20T14:12:48;1.40;;;0.60;;
43086;SDS011;28708;52.224;6.924;2023-07-20T14:15:13;1.73;;;0.50;;
43086;SDS011;28708;52.224;6.924;2023-07-20T14:17:39;3.38;;;0.70;;
43086;SDS011;28708;52.224;6.924;2023-07-20T14:20:05;1.20;;;0.40;;
43086;SDS011;28708;52.224;6.924;2023-07-20T14:22:31;1.48;;;0.65;;
43086;SDS011;28708;52.224;6.924;2023-07-20T14:24:57;1.67;;;0.70;;
43086;SDS011;28708;52.224;6.924;2023-07-20T14:27:24;1.23;;;0.50;;
43086;SDS011;28708;52.224;6.924;2023-07-20T14:29:49;3.53;;;0.88;;
43086;SDS011;28708;52.224;6.924;2023-07-20T14:32:15;1.73;;;0.63;;
43086;SDS011;28708;52.224;6.924;2023-07-20T14:34:41;1.17;;;0.88;;
43086;SDS011;28708;52.224;6.924;2023-07-20T14:37:06;0.95;;;0.52;;
43086;SDS011;28708;52.224;6.924;2023-07-20T14:39:32;5.00;;;1.05;;
43086;SDS011;28708;52.224;6.924;2023-07-20T14:41:58;1.05;;;0.63;;
43086;SDS011;28708;52.224;6.924;2023-07-20T14:44:24;2.45;;;0.60;;
43086;SDS011;28708;52.224;6.924;2023-07-20T14:46:49;1.63;;;0.73;;
43086;SDS011;28708;52.224;6.924;2023-07-20T14:49:16;0.95;;;0.57;;
43086;SDS011;28708;52.224;6.924;2023-07-20T14:51:42;1.35;;;0.63;;
43086;SDS011;28708;52.224;6.924;2023-07-20T14:54:12;1.75;;;0.70;;
43086;SDS011;28708;52.224;6.924;2023-07-20T14:56:38;2.33;;;0.80;;
43086;SDS011;28708;52.224;6.924;2023-07-20T14:59:05;1.73;;;0.70;;
43086;SDS011;28708;52.224;6.924;2023-07-20T15:01:31;2.28;;;0.80;;
43086;SDS011;28708;52.224;6.924;2023-07-20T15:03:57;3.70;;;0.77;;
43086;SDS011;28708;52.224;6.924;2023-07-20T15:06:26;2.42;;;0.80;;